Nearby METAR Reports

 

TNCA - Queen Beatrix, Lesser Antilles
Distance from station: 0 0km
Updated: 24/09/2017 15:00
Few Clouds
Few Clouds
 Wind from E
Wind: E 31 km/h
Temperature: 35°C
Heat Index: 45°C
Dew Point: 26°C
Humidity: 60%
Barometer: 1008 hPa
Clouds: Few Clouds
Visibility: 10 km
Cloud details: Few Clouds 701 m
2017/09/24 19:00 TNCA 241900Z 09017KT 9999 FEW023 35/26 Q1008 A2978 NOSIG
SVJC - Paraguana/Josefa, Venezuela
Distance from station: S 83km
Updated: 20/09/2017 14:00
NOT Current
Mostly Cloudy
Mostly Cloudy
 Wind from NNW
Wind: NNW 28 km/h
Clouds: Mostly Cloudy
Visibility: 10 km
Cloud details: Mostly Cloudy 1829 m
2017/09/20 18:00 SVJC 201800Z 33015KT 9999 BKN060CB XX/XX Q1008
 
TNCC - Hato Air Curacao, Lesser Antilles
Distance from station: ESE 117km
Updated: 24/09/2017 15:00
Few Clouds
Few Clouds
 Wind from E
Wind: E 24 km/h
Temperature: 32°C
Heat Index: 42°C
Dew Point: 26°C
Humidity: 71%
Barometer: 1009 hPa
Clouds: Few Clouds
Visibility: 10 km
Cloud details: Few Clouds 792 m
2017/09/24 19:00 TNCC 241900Z 09013KT 9999 FEW026 32/26 Q1009 NOSIG
SVCR - Coro/Jose Leonar, Venezuela
Distance from station: SSE 126km
Updated: 20/09/2017 14:00
NOT Current
Clear
Clear
 Wind from E
Wind: E 19 km/h
Summary: Clear
Visibility: greater than 10 km
2017/09/20 18:00 SVCR 201800Z 08010KT CAVOK XX/XX Q1009
 
TNCB - Bonaire/Flamingo, Lesser Antilles
Distance from station: ESE 191km
Updated: 24/09/2017 14:55
Partly Cloudy
Partly Cloudy
 Wind from ESE
Wind: ESE 24 km/h
Temperature: 32°C
Heat Index: 40°C
Dew Point: 25°C
Humidity: 67%
Barometer: 1009 hPa
Clouds: Partly Cloudy
Visibility: 10 km
Cloud details: Few Clouds 579 m
Partly Cloudy 671 m
2017/09/24 18:55 TNCB 241855Z 11013KT 070V150 9999 FEW019 SCT022 32/25 Q1009
SVMC - Maracaibo/La Chi, Venezuela
Distance from station: SW 285km
Updated: 24/09/2017 15:00
Partly Cloudy
Partly Cloudy
 Wind from N
Wind: N 2 km/h
Temperature: 34°C
Heat Index: 43°C
Dew Point: 26°C
Humidity: 63%
Barometer: 1009 hPa
Clouds: Partly Cloudy
Visibility: 10 km
Cloud details: Partly Cloudy 610 m
2017/09/24 19:00 SVMC 241900Z 36001KT 9999 SCT020 34/26 Q1009